createdAt,value
2022-10-31T00:01:18.784Z,98602.78
2022-10-31T00:03:47.697Z,98593.09
2022-10-31T00:06:15.550Z,98603.81
2022-10-31T00:08:42.392Z,98605.09
2022-10-31T00:11:11.163Z,98609.09
2022-10-31T00:13:38.338Z,98613.97
2022-10-31T00:16:05.939Z,98609.69
2022-10-31T00:18:32.937Z,98609.00
2022-10-31T00:21:04.472Z,98612.84
2022-10-31T00:23:31.501Z,98607.84
2022-10-31T00:26:05.356Z,98613.69
2022-10-31T00:28:33.274Z,98618.69
2022-10-31T00:31:02.217Z,98617.69
2022-10-31T00:33:29.461Z,98619.84
2022-10-31T00:35:59.253Z,98623.00
2022-10-31T00:38:26.265Z,98622.25
2022-10-31T00:40:53.703Z,98611.72
2022-10-31T00:43:20.680Z,98619.13
2022-10-31T00:45:47.668Z,98617.16
2022-10-31T00:48:14.692Z,98617.44
2022-10-31T00:50:42.311Z,98602.59
2022-10-31T00:53:10.034Z,98623.00
2022-10-31T00:55:37.029Z,98621.13
2022-10-31T00:58:04.407Z,98619.41
2022-10-31T01:00:31.578Z,98616.84
2022-10-31T01:02:58.889Z,98617.16
2022-10-31T01:05:26.186Z,98624.00
2022-10-31T01:07:53.097Z,98624.81
2022-10-31T01:10:20.161Z,98626.09
2022-10-31T01:12:49.394Z,98631.09
2022-10-31T01:15:22.926Z,98631.34
2022-10-31T01:17:50.437Z,98636.50
2022-10-31T01:20:18.317Z,98640.63
2022-10-31T01:22:45.501Z,98624.09
2022-10-31T01:25:12.626Z,98637.31
2022-10-31T01:27:39.920Z,98623.31
2022-10-31T01:30:08.351Z,98627.44
2022-10-31T01:32:35.490Z,98632.28
2022-10-31T01:35:02.950Z,98640.66
2022-10-31T01:37:31.460Z,98640.09
2022-10-31T01:39:58.667Z,98645.72
2022-10-31T01:42:25.582Z,98636.75
2022-10-31T01:44:57.149Z,98638.88
2022-10-31T01:47:46.836Z,98637.31
2022-10-31T01:50:29.415Z,98628.75
2022-10-31T01:52:58.455Z,98636.16
2022-10-31T01:55:30.007Z,98637.00
2022-10-31T01:58:03.439Z,98634.03
2022-10-31T02:00:31.837Z,98633.03
2022-10-31T02:03:01.100Z,98637.47
2022-10-31T02:05:30.752Z,98629.47
2022-10-31T02:08:09.605Z,98629.28
2022-10-31T02:10:37.995Z,98629.72
2022-10-31T02:13:08.557Z,98631.25
2022-10-31T02:15:46.148Z,98635.34
2022-10-31T02:18:13.175Z,98638.19
2022-10-31T02:20:42.903Z,98628.91
2022-10-31T02:23:37.215Z,98641.97
2022-10-31T02:26:15.917Z,98638.66
2022-10-31T02:29:08.182Z,98638.09
2022-10-31T02:32:07.542Z,98640.78
2022-10-31T02:34:42.774Z,98637.38
2022-10-31T02:37:20.909Z,98643.75
2022-10-31T02:40:20.057Z,98642.91
2022-10-31T02:43:28.184Z,98645.84
2022-10-31T02:46:05.252Z,98650.28
2022-10-31T02:48:40.052Z,98646.81
2022-10-31T02:51:08.884Z,98656.78
2022-10-31T02:53:38.334Z,98651.81
2022-10-31T02:56:13.326Z,98652.19
2022-10-31T02:58:52.488Z,98655.22
2022-10-31T03:01:42.234Z,98654.81
2022-10-31T03:04:22.704Z,98663.28
2022-10-31T03:07:01.482Z,98665.19
2022-10-31T03:09:33.660Z,98662.28
2022-10-31T03:12:20.069Z,98657.38
2022-10-31T03:14:54.689Z,98661.06
2022-10-31T03:17:35.162Z,98651.13
2022-10-31T03:20:04.735Z,98657.84
2022-10-31T03:22:34.290Z,98656.16
2022-10-31T03:25:05.224Z,98659.94
2022-10-31T03:27:35.924Z,98653.19
2022-10-31T03:30:06.172Z,98652.47
2022-10-31T03:33:05.194Z,98649.28
2022-10-31T03:35:36.031Z,98645.63
2022-10-31T03:38:07.615Z,98654.44
2022-10-31T03:40:37.135Z,98649.53
2022-10-31T03:43:10.868Z,98655.94
2022-10-31T03:45:44.321Z,98662.28
2022-10-31T03:48:14.980Z,98651.50
2022-10-31T03:51:16.048Z,98651.50
2022-10-31T03:53:50.475Z,98651.75
2022-10-31T03:56:30.338Z,98645.63
2022-10-31T03:59:09.302Z,98652.75
2022-10-31T04:01:41.453Z,98660.84
2022-10-31T04:04:10.126Z,98657.13
2022-10-31T04:06:40.145Z,98657.13
2022-10-31T04:09:10.230Z,98654.44
2022-10-31T04:11:46.897Z,98653.72
2022-10-31T04:14:37.314Z,98650.06
2022-10-31T04:17:08.639Z,98666.25
2022-10-31T04:19:40.088Z,98654.97
2022-10-31T04:22:07.676Z,98662.22
2022-10-31T04:24:34.587Z,98675.59
2022-10-31T04:27:01.658Z,98666.72
2022-10-31T04:29:29.674Z,98672.13
2022-10-31T04:31:56.627Z,98673.97
2022-10-31T04:34:23.599Z,98679.50
2022-10-31T04:36:50.972Z,98685.75
2022-10-31T04:39:22.649Z,98691.28
2022-10-31T04:42:18.653Z,98696.81
2022-10-31T04:44:45.817Z,98686.84
2022-10-31T04:47:12.806Z,98699.09
2022-10-31T04:49:39.803Z,98692.84
2022-10-31T04:52:09.201Z,98704.50
2022-10-31T04:54:36.241Z,98703.03
2022-10-31T04:57:23.224Z,98704.66
2022-10-31T04:59:50.253Z,98698.63
2022-10-31T05:02:17.242Z,98695.94
2022-10-31T05:04:50.524Z,98706.63
2022-10-31T05:07:18.322Z,98710.44
2022-10-31T05:09:45.781Z,98715.34
2022-10-31T05:12:13.702Z,98716.53
2022-10-31T05:15:14.057Z,98720.59
2022-10-31T05:18:10.973Z,98727.56
2022-10-31T05:21:01.234Z,98735.31
2022-10-31T05:23:35.919Z,98739.34
2022-10-31T05:26:05.525Z,98731.75
2022-10-31T05:28:33.635Z,98741.19
2022-10-31T05:31:01.267Z,98752.34
2022-10-31T05:33:28.389Z,98759.22
2022-10-31T05:36:07.939Z,98748.66
2022-10-31T05:39:13.987Z,98761.78
2022-10-31T05:41:43.964Z,98752.34
2022-10-31T05:44:19.942Z,98757.34
2022-10-31T05:47:00.251Z,98764.09
2022-10-31T05:49:46.051Z,98765.69
2022-10-31T05:52:36.426Z,98766.06
2022-10-31T05:55:17.557Z,98766.06
2022-10-31T05:58:00.000Z,98768.28
2022-10-31T06:00:29.406Z,98769.66
2022-10-31T06:03:06.732Z,98783.03
2022-10-31T06:05:42.534Z,98783.03
2022-10-31T06:08:09.703Z,98777.09
2022-10-31T06:10:38.838Z,98781.13
2022-10-31T06:13:07.839Z,98786.16
2022-10-31T06:15:40.494Z,98792.06
2022-10-31T06:18:10.082Z,98782.84
2022-10-31T06:20:46.834Z,98798.53
2022-10-31T06:23:14.064Z,98795.56
2022-10-31T06:25:43.814Z,98806.25
2022-10-31T06:28:12.292Z,98802.19
2022-10-31T06:31:06.505Z,98799.47
2022-10-31T06:33:35.037Z,98808.66
2022-10-31T06:36:02.853Z,98803.19
2022-10-31T06:38:30.560Z,98798.47
2022-10-31T06:40:58.442Z,98794.44
2022-10-31T06:43:27.435Z,98803.38
2022-10-31T06:46:24.107Z,98802.31
2022-10-31T06:49:10.526Z,98801.41
2022-10-31T06:51:54.264Z,98800.81
2022-10-31T06:54:22.511Z,98794.72
2022-10-31T06:56:49.751Z,98800.31
2022-10-31T06:59:17.445Z,98799.78
2022-10-31T07:07:26.336Z,98793.13
2022-10-31T07:09:53.749Z,98795.16
2022-10-31T07:12:31.337Z,98797.19
2022-10-31T07:14:59.264Z,98795.47
2022-10-31T07:17:30.000Z,98791.63
2022-10-31T07:20:00.369Z,98797.00
2022-10-31T07:22:34.936Z,98783.13
2022-10-31T07:25:04.247Z,98794.13
2022-10-31T07:28:01.388Z,98791.91
2022-10-31T07:30:29.054Z,98796.72
2022-10-31T07:32:57.412Z,98788.69
2022-10-31T07:35:31.256Z,98783.44
2022-10-31T07:38:07.305Z,98779.38
2022-10-31T07:40:34.288Z,98784.75
2022-10-31T07:43:01.446Z,98775.69
2022-10-31T07:46:03.993Z,98780.03
2022-10-31T07:48:36.953Z,98780.88
2022-10-31T08:25:58.542Z,98758.50
2022-10-31T08:28:25.595Z,98746.91
2022-10-31T08:30:54.299Z,98755.97
2022-10-31T08:33:39.948Z,98751.38
2022-10-31T08:36:13.172Z,98735.19
2022-10-31T08:38:56.536Z,98744.09
2022-10-31T08:41:28.345Z,98750.25
2022-10-31T08:43:55.498Z,98746.31
2022-10-31T08:46:22.841Z,98748.19
2022-10-31T08:48:50.038Z,98747.69
2022-10-31T08:51:18.765Z,98750.03
2022-10-31T08:53:45.814Z,98737.72
2022-10-31T08:56:39.520Z,98738.41
2022-10-31T08:59:19.841Z,98738.19
2022-10-31T09:02:06.811Z,98741.41
2022-10-31T09:04:34.520Z,98746.19
2022-10-31T09:07:20.123Z,98732.50
2022-10-31T09:09:48.210Z,98730.69
2022-10-31T09:12:15.529Z,98738.56
2022-10-31T09:15:11.695Z,98741.19
2022-10-31T09:17:50.278Z,98730.66
2022-10-31T09:20:42.235Z,98732.13
2022-10-31T09:23:14.746Z,98733.72
2022-10-31T09:25:45.048Z,98725.94
2022-10-31T09:28:32.784Z,98729.41
2022-10-31T09:31:06.276Z,98728.97
2022-10-31T09:34:05.419Z,98727.53
2022-10-31T09:36:41.395Z,98723.00
2022-10-31T09:39:12.768Z,98721.59
2022-10-31T09:41:56.171Z,98723.25
2022-10-31T09:44:35.042Z,98721.09
2022-10-31T09:47:08.578Z,98714.50
2022-10-31T09:49:54.460Z,98715.03
2022-10-31T09:52:37.535Z,98700.22
2022-10-31T09:55:17.282Z,98694.63
2022-10-31T09:57:46.408Z,98698.28
2022-10-31T10:00:19.531Z,98698.19
2022-10-31T10:03:13.234Z,98696.00
2022-10-31T10:06:02.625Z,98698.06
2022-10-31T10:08:46.295Z,98694.09
2022-10-31T10:11:59.989Z,98679.66
2022-10-31T10:14:26.850Z,98683.31
2022-10-31T10:17:14.603Z,98683.47
2022-10-31T10:20:26.987Z,98675.13
2022-10-31T10:23:24.907Z,98670.72
2022-10-31T10:25:55.142Z,98669.19
2022-10-31T10:28:30.133Z,98662.06
2022-10-31T10:31:01.189Z,98663.97
2022-10-31T10:33:42.572Z,98651.75
2022-10-31T10:36:38.992Z,98648.47
2022-10-31T10:39:17.067Z,98636.91
2022-10-31T10:41:48.211Z,98638.09
2022-10-31T10:44:16.789Z,98633.88
2022-10-31T10:47:08.299Z,98630.19
2022-10-31T10:49:51.321Z,98627.56
2022-10-31T10:52:46.035Z,98629.91
2022-10-31T10:55:38.356Z,98628.59
2022-10-31T10:58:08.717Z,98625.25
2022-10-31T11:00:47.521Z,98621.91
2022-10-31T11:03:15.694Z,98621.09
2022-10-31T11:05:51.326Z,98608.88
2022-10-31T11:08:29.761Z,98615.00
2022-10-31T11:11:06.024Z,98603.34
2022-10-31T11:13:34.772Z,98610.72
2022-10-31T11:16:11.832Z,98609.66
2022-10-31T11:18:43.262Z,98603.44
2022-10-31T11:21:25.142Z,98601.38
2022-10-31T11:24:23.169Z,98591.75
2022-10-31T11:26:52.317Z,98589.75
2022-10-31T11:29:26.101Z,98577.47
2022-10-31T11:31:56.591Z,98588.81
2022-10-31T11:34:29.397Z,98584.47
2022-10-31T11:37:05.020Z,98575.38
2022-10-31T11:39:32.532Z,98578.31
2022-10-31T11:42:08.595Z,98565.38
2022-10-31T11:44:36.665Z,98570.03
2022-10-31T11:47:06.788Z,98570.00
2022-10-31T11:49:41.168Z,98569.16
2022-10-31T11:52:31.173Z,98562.25
2022-10-31T11:55:13.819Z,98563.13
2022-10-31T11:57:57.585Z,98553.66
2022-10-31T12:03:34.506Z,98540.34
2022-10-31T12:06:38.834Z,98547.09
2022-10-31T12:09:33.894Z,98546.72
2022-10-31T12:12:20.082Z,98540.16
2022-10-31T12:15:35.816Z,98539.16
2022-10-31T12:18:26.360Z,98539.69
2022-10-31T12:21:20.357Z,98532.19
2022-10-31T12:24:15.844Z,98540.16
2022-10-31T12:26:50.128Z,98541.44
2022-10-31T12:29:26.386Z,98527.50
2022-10-31T12:32:12.084Z,98533.41
2022-10-31T12:35:21.145Z,98530.00
2022-10-31T12:37:50.947Z,98523.00
2022-10-31T12:40:45.206Z,98524.41
2022-10-31T12:43:27.462Z,98526.00
2022-10-31T12:46:02.169Z,98524.34
2022-10-31T12:48:40.298Z,98524.47
2022-10-31T12:51:44.401Z,98519.16
2022-10-31T12:54:32.755Z,98529.03
2022-10-31T12:57:06.081Z,98518.28
2022-10-31T12:59:47.333Z,98523.34
2022-10-31T13:02:20.017Z,98528.16
2022-10-31T13:04:49.967Z,98518.56
2022-10-31T13:07:26.852Z,98519.25
2022-10-31T13:10:10.101Z,98519.94
2022-10-31T13:12:38.310Z,98521.75
2022-10-31T13:15:32.384Z,98520.09
2022-10-31T13:18:08.237Z,98517.63
2022-10-31T13:20:42.907Z,98515.66
2022-10-31T13:26:44.251Z,98516.06
2022-10-31T13:29:41.361Z,98514.41
2022-10-31T13:32:09.262Z,98509.66
2022-10-31T13:34:42.256Z,98512.97
2022-10-31T13:37:47.184Z,98511.53
2022-10-31T13:40:56.400Z,98523.22
2022-10-31T13:43:32.853Z,98520.09
2022-10-31T13:46:00.926Z,98514.69
2022-10-31T13:48:40.680Z,98514.97
2022-10-31T13:51:11.585Z,98517.06
2022-10-31T13:54:21.498Z,98516.81
2022-10-31T13:56:53.669Z,98508.41
2022-10-31T13:59:25.185Z,98515.97
2022-10-31T14:02:14.289Z,98509.16
2022-10-31T14:05:17.573Z,98510.56
2022-10-31T14:07:46.753Z,98502.69
2022-10-31T14:10:29.768Z,98505.41
2022-10-31T14:13:16.874Z,98508.53
2022-10-31T14:15:57.410Z,98504.59
2022-10-31T14:18:30.247Z,98501.41
2022-10-31T14:20:57.482Z,98508.41
2022-10-31T14:23:41.863Z,98510.00
2022-10-31T14:26:24.153Z,98500.69
2022-10-31T14:28:54.973Z,98497.41
2022-10-31T14:31:54.479Z,98496.75
2022-10-31T14:34:38.569Z,98509.75
2022-10-31T14:37:20.053Z,98513.06
2022-10-31T14:39:56.970Z,98506.72
2022-10-31T14:42:27.100Z,98507.91
2022-10-31T14:45:32.469Z,98512.28
2022-10-31T14:48:16.315Z,98507.81
2022-10-31T14:50:49.691Z,98503.47
2022-10-31T14:53:23.506Z,98505.34
2022-10-31T14:55:56.969Z,98497.13
2022-10-31T14:58:38.817Z,98502.28
2022-10-31T15:01:06.662Z,98497.25
2022-10-31T15:03:39.490Z,98505.06
2022-10-31T15:06:14.983Z,98505.47
2022-10-31T15:08:47.304Z,98504.56
2022-10-31T15:11:18.397Z,98503.38
2022-10-31T15:13:53.100Z,98501.81
2022-10-31T15:16:36.276Z,98504.78
2022-10-31T15:19:11.783Z,98505.53
2022-10-31T15:21:44.809Z,98509.97
2022-10-31T15:24:16.969Z,98510.97
2022-10-31T15:26:51.502Z,98519.44
2022-10-31T15:29:24.275Z,98527.31
2022-10-31T15:31:57.606Z,98526.75
2022-10-31T15:34:42.024Z,98521.50
2022-10-31T15:37:21.331Z,98523.25
2022-10-31T15:39:50.397Z,98524.13
2022-10-31T15:42:31.949Z,98526.00
2022-10-31T15:45:04.090Z,98517.09
2022-10-31T15:47:34.603Z,98525.13
2022-10-31T15:53:15.403Z,98530.50
2022-10-31T15:55:50.252Z,98529.59
2022-10-31T15:58:19.990Z,98532.47
2022-10-31T16:00:59.432Z,98531.56
2022-10-31T16:03:31.939Z,98534.00
2022-10-31T16:06:04.943Z,98541.28
2022-10-31T16:08:31.891Z,98542.91
2022-10-31T16:11:08.155Z,98543.72
2022-10-31T16:13:38.483Z,98552.03
2022-10-31T16:19:02.306Z,98562.28
2022-10-31T16:21:36.691Z,98552.09
2022-10-31T16:24:30.971Z,98565.38
2022-10-31T16:27:06.425Z,98562.28
2022-10-31T16:29:44.629Z,98569.00
2022-10-31T16:32:25.224Z,98572.31
2022-10-31T16:35:18.265Z,98577.75
2022-10-31T16:37:45.580Z,98580.16
2022-10-31T16:40:14.441Z,98580.72
2022-10-31T16:42:43.381Z,98600.88
2022-10-31T16:45:18.974Z,98592.50
2022-10-31T16:47:47.495Z,98599.47
2022-10-31T16:50:22.153Z,98599.38
2022-10-31T16:55:45.998Z,98607.84
2022-10-31T16:58:20.241Z,98610.53
2022-10-31T17:00:47.877Z,98610.41
2022-10-31T17:03:15.099Z,98614.66
2022-10-31T17:05:42.755Z,98603.63
2022-10-31T17:08:09.695Z,98609.66
2022-10-31T17:10:37.602Z,98612.75
2022-10-31T17:13:07.370Z,98624.53
2022-10-31T17:15:42.294Z,98624.50
2022-10-31T17:18:13.515Z,98625.88
2022-10-31T17:20:41.099Z,98623.69
2022-10-31T17:23:11.109Z,98628.38
2022-10-31T17:25:40.452Z,98636.47
2022-10-31T17:28:08.070Z,98634.81
2022-10-31T17:30:36.771Z,98652.56
2022-10-31T17:33:04.201Z,98650.22
2022-10-31T17:35:31.209Z,98645.94
2022-10-31T17:37:58.218Z,98644.44
2022-10-31T17:40:25.161Z,98644.56
2022-10-31T17:42:54.565Z,98646.50
2022-10-31T17:45:22.825Z,98651.50
2022-10-31T17:47:51.608Z,98653.59
2022-10-31T17:50:21.091Z,98660.78
2022-10-31T17:52:49.236Z,98663.91
2022-10-31T17:55:17.442Z,98662.59
2022-10-31T17:57:44.852Z,98677.81
2022-10-31T18:00:14.960Z,98677.53
2022-10-31T18:02:42.125Z,98679.75
2022-10-31T18:05:09.534Z,98687.47
2022-10-31T18:07:36.542Z,98684.75
2022-10-31T18:10:03.655Z,98681.16
2022-10-31T18:12:32.480Z,98678.38
2022-10-31T18:14:59.454Z,98673.28
2022-10-31T18:17:26.739Z,98672.59
2022-10-31T18:19:53.754Z,98684.19
2022-10-31T18:22:20.689Z,98688.13
2022-10-31T18:24:47.617Z,98688.59
2022-10-31T18:27:14.552Z,98693.03
2022-10-31T18:29:41.557Z,98698.34
2022-10-31T18:32:09.817Z,98689.97
2022-10-31T18:34:36.989Z,98697.09
2022-10-31T18:37:03.997Z,98701.34
2022-10-31T18:39:31.092Z,98703.56
2022-10-31T18:41:58.318Z,98701.31
2022-10-31T18:44:25.912Z,98707.44
2022-10-31T18:46:52.897Z,98706.22
2022-10-31T18:49:22.755Z,98713.19
2022-10-31T18:51:53.098Z,98708.22
2022-10-31T18:54:20.134Z,98706.47
2022-10-31T18:56:47.185Z,98711.41
2022-10-31T18:59:14.204Z,98710.66
2022-10-31T19:01:41.306Z,98711.13
2022-10-31T19:04:10.756Z,98707.53
2022-10-31T19:06:37.729Z,98716.88
2022-10-31T19:09:10.341Z,98720.22
2022-10-31T19:11:38.891Z,98719.50
2022-10-31T19:14:08.506Z,98714.16
2022-10-31T19:16:37.793Z,98721.63
2022-10-31T19:19:05.182Z,98722.81
2022-10-31T19:21:32.612Z,98724.81
2022-10-31T19:24:00.944Z,98722.75
2022-10-31T19:26:28.904Z,98718.66
2022-10-31T19:28:56.512Z,98723.22
2022-10-31T19:31:24.515Z,98731.53
2022-10-31T19:33:51.899Z,98727.75
2022-10-31T19:36:20.366Z,98739.66
2022-10-31T19:38:49.986Z,98731.81
2022-10-31T19:41:21.292Z,98735.84
2022-10-31T19:43:51.000Z,98743.16
2022-10-31T19:46:33.545Z,98734.56
2022-10-31T19:49:06.523Z,98736.91
2022-10-31T19:51:33.458Z,98737.34
2022-10-31T19:54:00.386Z,98745.00
2022-10-31T19:56:27.438Z,98747.50
2022-10-31T19:58:54.392Z,98745.72
2022-10-31T20:01:24.121Z,98756.19
2022-10-31T20:03:51.965Z,98763.28
2022-10-31T20:06:31.762Z,98754.00
2022-10-31T20:09:01.907Z,98762.78
2022-10-31T20:11:29.309Z,98753.56
2022-10-31T20:13:59.060Z,98764.56
2022-10-31T20:16:27.460Z,98770.66
2022-10-31T20:18:55.609Z,98773.41
2022-10-31T20:21:26.734Z,98760.31
2022-10-31T20:24:02.158Z,98776.06
2022-10-31T20:26:31.230Z,98777.34
2022-10-31T20:28:59.908Z,98771.91
2022-10-31T20:31:29.873Z,98773.38
2022-10-31T20:33:57.425Z,98775.00
2022-10-31T20:36:24.681Z,98776.25
2022-10-31T20:38:52.453Z,98773.22
2022-10-31T20:41:20.897Z,98779.47
2022-10-31T20:43:47.994Z,98782.88
2022-10-31T20:46:18.520Z,98784.91
2022-10-31T20:48:46.671Z,98783.81
2022-10-31T20:53:49.811Z,98792.66
2022-10-31T20:56:19.661Z,98783.38
2022-10-31T20:58:48.790Z,98787.41
2022-10-31T21:01:16.987Z,98792.72
2022-10-31T21:03:44.790Z,98788.03
2022-10-31T21:06:13.547Z,98796.78
2022-10-31T21:08:41.960Z,98788.22
2022-10-31T21:11:16.052Z,98790.97
2022-10-31T21:13:45.321Z,98795.16
2022-10-31T21:16:19.232Z,98783.72
2022-10-31T21:18:47.629Z,98791.13
2022-10-31T21:21:29.030Z,98796.13
2022-10-31T21:24:05.626Z,98794.97
2022-10-31T21:26:36.872Z,98787.38
2022-10-31T21:29:05.832Z,98788.41
2022-10-31T21:31:33.227Z,98797.41
2022-10-31T21:34:00.621Z,98792.16
2022-10-31T21:36:27.748Z,98795.16
2022-10-31T21:38:56.134Z,98788.59
2022-10-31T21:41:24.969Z,98794.16
2022-10-31T21:43:54.447Z,98795.47
2022-10-31T21:46:24.797Z,98802.31
2022-10-31T21:48:53.267Z,98794.03
2022-10-31T21:51:21.192Z,98795.47
2022-10-31T21:54:08.180Z,98806.72
2022-10-31T21:56:36.017Z,98798.34
2022-10-31T21:59:03.375Z,98798.75
2022-10-31T22:01:32.142Z,98803.47
2022-10-31T22:03:59.846Z,98800.31
2022-10-31T22:06:30.283Z,98802.19
2022-10-31T22:09:02.543Z,98812.72
2022-10-31T22:11:30.245Z,98810.09
2022-10-31T22:13:59.627Z,98794.09
2022-10-31T22:16:29.279Z,98801.38
2022-10-31T22:18:58.710Z,98808.22
2022-10-31T22:21:28.471Z,98807.66
2022-10-31T22:24:01.843Z,98806.25
2022-10-31T22:26:33.913Z,98817.69
2022-10-31T22:29:04.188Z,98804.69
2022-10-31T22:31:32.870Z,98816.13
2022-10-31T22:34:00.388Z,98816.25
2022-10-31T22:36:29.973Z,98823.09
2022-10-31T22:38:58.210Z,98818.22
2022-10-31T22:41:27.371Z,98815.66
2022-10-31T22:43:55.960Z,98820.34
2022-10-31T22:46:26.020Z,98820.22
2022-10-31T22:48:56.755Z,98818.50
2022-10-31T22:51:25.391Z,98820.94
2022-10-31T22:53:52.836Z,98808.81
2022-10-31T22:56:21.695Z,98816.53
2022-10-31T22:58:49.479Z,98816.66
2022-10-31T23:01:19.379Z,98819.66
2022-10-31T23:03:47.152Z,98820.22
2022-10-31T23:06:19.790Z,98811.97
2022-10-31T23:08:47.553Z,98818.94
2022-10-31T23:11:44.111Z,98825.91
2022-10-31T23:14:15.817Z,98823.06
2022-10-31T23:16:55.768Z,98823.59
2022-10-31T23:19:28.713Z,98817.84
2022-10-31T23:22:03.148Z,98816.44
2022-10-31T23:24:37.873Z,98812.28
2022-10-31T23:27:17.024Z,98816.53
2022-10-31T23:29:53.544Z,98815.50
2022-10-31T23:32:21.952Z,98819.16
2022-10-31T23:34:51.080Z,98822.56
2022-10-31T23:37:19.399Z,98813.78
2022-10-31T23:39:47.536Z,98820.94
2022-10-31T23:42:18.441Z,98816.16
2022-10-31T23:44:46.186Z,98815.72
2022-10-31T23:47:13.700Z,98824.25
2022-10-31T23:49:40.676Z,98830.50
2022-10-31T23:52:08.573Z,98824.13
2022-10-31T23:54:35.838Z,98825.94
2022-10-31T23:57:03.628Z,98825.00
2022-10-31T23:59:30.613Z,98824.56
